Time;durP1;ratioP1;P1;durP2;ratioP2;P2;SDS_P1;SDS_P2;PMS_P1;PMS_P2;Temp;Humidity;BMP_temperature;BMP_pressure;BME280_temperature;BME280_humidity;BME280_pressure;Samples;Min_cycle;Max_cycle;Signal;HPM_P1;HPM_P2
2020/12/16 00:01:42;;;;;;;51.90;26.00;;;7.10;90.10;;;;;;8375970;28;20463;-72
2020/12/16 00:05:42;;;;;;;73.97;32.43;;;7.10;90.30;;;;;;8373790;28;20650;-73
2020/12/16 00:09:44;;;;;;;71.03;31.30;;;7.10;90.50;;;;;;8380888;28;20967;-72
2020/12/16 00:13:45;;;;;;;69.67;31.47;;;7.10;90.80;;;;;;8376125;28;20210;-74
2020/12/16 00:17:50;;;;;;;75.20;33.60;;;7.20;90.70;;;;;;8399268;28;20558;-74
2020/12/16 00:21:55;;;;;;;68.67;31.50;;;7.20;90.80;;;;;;8367954;28;20458;-74
2020/12/16 00:25:56;;;;;;;62.77;28.67;;;7.30;91.00;;;;;;8386671;28;20742;-74
2020/12/16 00:29:56;;;;;;;51.17;26.67;;;7.40;91.20;;;;;;8378551;28;20939;-72
2020/12/16 00:34:02;;;;;;;61.90;26.37;;;7.50;91.30;;;;;;8376232;28;20217;-73
2020/12/16 00:38:06;;;;;;;45.53;24.37;;;7.60;91.40;;;;;;8381340;28;20206;-73
2020/12/16 00:42:07;;;;;;;48.90;26.10;;;7.70;91.40;;;;;;8370857;28;20464;-73
2020/12/16 00:46:08;;;;;;;50.10;24.93;;;7.80;91.30;;;;;;8381820;28;20533;-74
2020/12/16 00:50:10;;;;;;;58.20;29.00;;;7.80;91.40;;;;;;8372454;28;20502;-73
2020/12/16 00:54:14;;;;;;;60.23;26.77;;;7.90;91.50;;;;;;8386689;28;20194;-73
2020/12/16 00:58:18;;;;;;;63.50;26.83;;;8.00;91.60;;;;;;8382070;28;20472;-73
2020/12/16 01:02:20;;;;;;;49.30;20.80;;;8.10;91.60;;;;;;8381940;28;20464;-73
2020/12/16 01:06:25;;;;;;;32.50;19.83;;;8.20;91.50;;;;;;8370437;28;20458;-73
2020/12/16 01:10:29;;;;;;;28.57;15.07;;;8.10;91.20;;;;;;8374638;28;20495;-73
2020/12/16 01:14:30;;;;;;;36.10;19.70;;;8.10;90.80;;;;;;8381170;28;20522;-73
2020/12/16 01:18:30;;;;;;;32.77;16.10;;;7.90;90.70;;;;;;8380892;28;20448;-73
2020/12/16 01:22:42;;;;;;;37.30;17.10;;;7.80;90.40;;;;;;8399301;28;20770;-73
2020/12/16 01:26:48;;;;;;;28.07;16.00;;;7.70;90.30;;;;;;8375554;28;20472;-73
2020/12/16 01:30:48;;;;;;;33.80;17.60;;;7.50;90.20;;;;;;8374032;28;20538;-73
2020/12/16 01:34:49;;;;;;;41.63;19.60;;;7.50;90.30;;;;;;8380827;28;20460;-73
2020/12/16 01:38:53;;;;;;;37.60;19.53;;;7.30;90.30;;;;;;8390615;28;20656;-73
2020/12/16 01:42:54;;;;;;;70.40;25.60;;;7.30;90.30;;;;;;8360931;28;21994;-73
2020/12/16 01:47:00;;;;;;;59.83;25.63;;;7.20;90.50;;;;;;8376626;28;20229;-73
2020/12/16 01:51:16;;;;;;;77.93;30.20;;;7.20;90.70;;;;;;8400694;28;20325;-73
2020/12/16 01:55:20;;;;;;;81.93;29.00;;;7.30;91.10;;;;;;8378127;28;20456;-73
2020/12/16 01:59:25;;;;;;;86.93;27.80;;;7.40;91.40;;;;;;8398952;28;20445;-73
2020/12/16 02:03:26;;;;;;;65.47;24.07;;;7.60;91.60;;;;;;8379129;28;20468;-73
2020/12/16 02:07:30;;;;;;;57.20;24.03;;;7.80;91.70;;;;;;8371144;28;20198;-73
2020/12/16 02:11:36;;;;;;;61.23;24.37;;;7.90;91.80;;;;;;8388830;28;20464;-73
2020/12/16 02:15:50;;;;;;;47.73;22.30;;;8.10;91.90;;;;;;8380679;28;20448;-74
2020/12/16 02:19:59;;;;;;;34.93;16.47;;;8.20;91.90;;;;;;8353009;28;20441;-74
2020/12/16 02:24:08;;;;;;;32.97;15.50;;;8.40;91.90;;;;;;8372649;28;20515;-73
2020/12/16 02:28:13;;;;;;;31.93;17.63;;;8.50;91.90;;;;;;8390068;28;20441;-73
2020/12/16 02:32:14;;;;;;;34.53;15.47;;;8.60;91.80;;;;;;8368698;28;20469;-74
2020/12/16 02:36:21;;;;;;;30.10;14.37;;;8.60;91.80;;;;;;8392551;28;20436;-74
2020/12/16 02:40:21;;;;;;;29.73;14.50;;;8.70;91.80;;;;;;8392725;28;20438;-74
2020/12/16 02:44:22;;;;;;;41.40;16.30;;;8.80;91.80;;;;;;8354724;28;20445;-74
2020/12/16 02:48:25;;;;;;;27.90;15.60;;;8.90;91.80;;;;;;8375891;28;20190;-75
2020/12/16 02:52:28;;;;;;;20.43;12.30;;;8.90;91.70;;;;;;8374963;28;20219;-74
2020/12/16 02:56:28;;;;;;;21.40;12.30;;;9.00;91.50;;;;;;8410495;28;20456;-74
2020/12/16 03:00:35;;;;;;;18.93;12.43;;;8.90;91.30;;;;;;8372706;28;20441;-74
2020/12/16 03:04:39;;;;;;;21.93;13.70;;;8.80;91.40;;;;;;8402227;28;20194;-74
2020/12/16 03:08:47;;;;;;;21.03;13.13;;;8.80;91.40;;;;;;8369950;28;20449;-74
2020/12/16 03:12:51;;;;;;;25.73;12.67;;;8.80;91.60;;;;;;8371890;28;20554;-74
2020/12/16 03:16:54;;;;;;;20.77;12.07;;;8.90;91.70;;;;;;8373577;28;20580;-74
2020/12/16 03:20:59;;;;;;;19.57;12.40;;;9.00;91.70;;;;;;8377380;28;20183;-74
2020/12/16 03:25:00;;;;;;;19.37;11.10;;;9.00;91.70;;;;;;8371457;28;21057;-75
2020/12/16 03:29:04;;;;;;;17.80;11.03;;;9.10;91.70;;;;;;8393314;28;20451;-74
2020/12/16 03:33:07;;;;;;;18.33;10.20;;;9.10;91.70;;;;;;8373419;28;20472;-74
2020/12/16 03:37:11;;;;;;;15.53;9.90;;;9.20;91.80;;;;;;8389311;28;20544;-74
2020/12/16 03:41:14;;;;;;;18.37;9.73;;;9.30;91.80;;;;;;8382087;28;21051;-74
2020/12/16 03:45:17;;;;;;;9.90;8.60;;;9.40;91.80;;;;;;8380881;28;20218;-74
2020/12/16 03:49:21;;;;;;;13.33;8.87;;;9.40;91.60;;;;;;8389947;28;20514;-74
2020/12/16 03:53:25;;;;;;;14.73;8.17;;;9.40;91.40;;;;;;8364470;28;21011;-74
2020/12/16 03:57:31;;;;;;;11.90;8.70;;;9.40;91.20;;;;;;8384983;28;20453;-74
2020/12/16 04:01:35;;;;;;;16.73;9.00;;;9.30;91.00;;;;;;8372158;28;20826;-74
2020/12/16 04:05:36;;;;;;;12.70;8.53;;;9.20;90.90;;;;;;8377023;28;21007;-74
2020/12/16 04:09:40;;;;;;;10.50;8.40;;;9.10;90.90;;;;;;8407134;28;20186;-74
2020/12/16 04:13:41;;;;;;;10.17;7.93;;;9.10;91.10;;;;;;8360054;28;20583;-74
2020/12/16 04:17:45;;;;;;;12.80;8.27;;;9.00;91.10;;;;;;8394766;28;20183;-74
2020/12/16 04:21:54;;;;;;;14.73;8.37;;;9.00;91.00;;;;;;8398233;28;20448;-73
2020/12/16 04:25:55;;;;;;;10.73;7.53;;;9.00;90.90;;;;;;8403364;28;20459;-73
2020/12/16 04:29:56;;;;;;;12.43;8.47;;;8.90;90.80;;;;;;8386022;28;20529;-73
2020/12/16 04:34:00;;;;;;;19.57;9.67;;;8.80;90.70;;;;;;8403052;28;20467;-73
2020/12/16 04:38:01;;;;;;;12.10;8.83;;;8.80;90.70;;;;;;8368941;28;20458;-73
2020/12/16 04:42:09;;;;;;;14.00;8.57;;;8.80;90.70;;;;;;8380184;28;20656;-74
2020/12/16 04:46:14;;;;;;;17.23;11.33;;;8.70;90.70;;;;;;8375830;28;20441;-74
2020/12/16 04:50:15;;;;;;;18.97;10.33;;;8.60;90.70;;;;;;8375617;28;20213;-73
2020/12/16 04:54:20;;;;;;;13.27;9.00;;;8.60;90.80;;;;;;8395235;28;20475;-73
2020/12/16 04:58:28;;;;;;;18.47;11.27;;;8.60;90.70;;;;;;8370408;28;20453;-74
2020/12/16 05:02:30;;;;;;;20.87;11.43;;;8.60;90.50;;;;;;8381753;28;20549;-74
2020/12/16 05:06:40;;;;;;;16.57;10.40;;;8.50;90.30;;;;;;8383798;28;20574;-74
2020/12/16 05:10:47;;;;;;;18.40;10.43;;;8.50;90.40;;;;;;8399698;28;20468;-74
2020/12/16 05:14:48;;;;;;;17.27;10.90;;;8.40;90.40;;;;;;8375093;28;20527;-74
2020/12/16 05:18:51;;;;;;;14.50;8.87;;;8.40;90.10;;;;;;8382843;28;20441;-74
2020/12/16 05:22:59;;;;;;;14.00;8.83;;;8.20;89.60;;;;;;8373185;28;20202;-74
2020/12/16 05:27:07;;;;;;;17.57;11.07;;;8.00;88.90;;;;;;8385784;28;20460;-74
2020/12/16 05:31:11;;;;;;;14.57;10.43;;;7.90;88.80;;;;;;8380487;28;20465;-74
2020/12/16 05:35:24;;;;;;;29.00;14.07;;;7.70;88.70;;;;;;8388147;28;20452;-73
2020/12/16 05:39:26;;;;;;;36.33;17.90;;;7.60;89.10;;;;;;8403957;28;20519;-73
2020/12/16 05:43:29;;;;;;;57.07;19.60;;;7.50;89.30;;;;;;8380049;28;20459;-73
2020/12/16 05:47:39;;;;;;;50.00;20.13;;;7.40;90.00;;;;;;8389910;28;20937;-74
2020/12/16 05:51:41;;;;;;;68.67;24.10;;;7.40;90.40;;;;;;8378202;28;20472;-73
2020/12/16 05:55:42;;;;;;;51.60;21.70;;;7.40;90.80;;;;;;8375669;28;20444;-73
2020/12/16 06:00:11;;;;;;;51.00;22.20;;;7.50;91.00;;;;;;8372499;28;20433;-73
2020/12/16 06:04:19;;;;;;;60.23;23.10;;;7.50;91.00;;;;;;8369531;28;20467;-73
2020/12/16 06:08:24;;;;;;;60.97;24.80;;;7.60;91.00;;;;;;8358434;28;20448;-73
2020/12/16 06:12:27;;;;;;;52.47;19.97;;;7.70;91.00;;;;;;8382351;28;20472;-74
2020/12/16 06:16:28;;;;;;;45.23;19.60;;;7.70;90.80;;;;;;8380217;28;21223;-74
2020/12/16 06:20:36;;;;;;;40.00;16.93;;;7.70;90.50;;;;;;8357063;28;20442;-74
2020/12/16 06:24:43;;;;;;;71.47;28.20;;;7.60;90.30;;;;;;8350224;28;20474;-72
2020/12/16 06:28:46;;;;;;;51.90;24.57;;;7.50;90.30;;;;;;8369658;28;20453;-73
2020/12/16 06:32:52;;;;;;;73.87;26.77;;;7.40;90.50;;;;;;8345977;28;20967;-73
2020/12/16 06:36:53;;;;;;;124.50;34.50;;;7.40;90.50;;;;;;8353674;28;20481;-73
2020/12/16 06:40:56;;;;;;;95.37;30.80;;;7.30;90.80;;;;;;8354128;28;20460;-73
2020/12/16 06:45:16;;;;;;;113.87;33.70;;;7.40;90.90;;;;;;8365799;28;21051;-72
2020/12/16 06:49:23;;;;;;;77.27;27.60;;;7.40;91.10;;;;;;8364037;28;20445;-73
2020/12/16 06:53:24;;;;;;;66.43;25.37;;;7.50;91.30;;;;;;8346265;28;21790;-73
2020/12/16 06:57:25;;;;;;;53.67;23.23;;;7.60;91.20;;;;;;8381533;28;21249;-74
2020/12/16 07:01:26;;;;;;;73.27;28.40;;;7.60;91.10;;;;;;8360491;28;20468;-74
2020/12/16 07:05:39;;;;;;;70.47;27.00;;;7.60;90.90;;;;;;8363523;28;20483;-73
2020/12/16 07:09:43;;;;;;;66.33;22.70;;;7.60;90.90;;;;;;8357825;28;20445;-73
2020/12/16 07:14:13;;;;;;;41.83;21.97;;;7.50;91.10;;;;;;8337208;28;20476;-74
2020/12/16 07:18:29;;;;;;;53.53;22.77;;;7.50;90.90;;;;;;8362108;28;20432;-74
2020/12/16 07:22:31;;;;;;;55.90;23.80;;;7.50;90.80;;;;;;8360253;28;20467;-74
2020/12/16 07:26:47;;;;;;;53.63;21.37;;;7.40;90.80;;;;;;8358085;28;20503;-73
2020/12/16 07:30:50;;;;;;;70.20;27.57;;;7.50;90.80;;;;;;8356951;28;20468;-74
2020/12/16 07:34:58;;;;;;;69.63;25.50;;;7.50;90.90;;;;;;8356347;28;20449;-74
2020/12/16 07:39:00;;;;;;;59.20;23.93;;;7.50;91.00;;;;;;8363214;28;20441;-74
2020/12/16 07:43:03;;;;;;;50.03;23.43;;;7.60;91.10;;;;;;8361952;28;20453;-74
2020/12/16 07:47:04;;;;;;;56.43;23.73;;;7.60;91.00;;;;;;8360861;28;20448;-74
2020/12/16 07:51:06;;;;;;;62.00;22.27;;;7.60;91.00;;;;;;8345682;28;20482;-74
2020/12/16 07:55:07;;;;;;;51.60;24.23;;;7.60;91.10;;;;;;8364245;28;20444;-74
2020/12/16 07:59:10;;;;;;;111.60;35.47;;;7.60;91.00;;;;;;8362852;28;20460;-74
2020/12/16 08:03:15;;;;;;;170.37;42.17;;;7.70;91.20;;;;;;8376834;28;20311;-74
2020/12/16 08:07:18;;;;;;;162.23;46.90;;;7.80;91.50;;;;;;8358288;28;20459;-77
2020/12/16 08:11:27;;;;;;;161.83;48.37;;;8.10;91.70;;;;;;8358716;28;20472;-74
2020/12/16 08:15:29;;;;;;;161.60;44.17;;;8.40;91.90;;;;;;8361304;28;20445;-74
2020/12/16 08:19:30;;;;;;;144.33;44.93;;;8.60;92.00;;;;;;8350487;28;20462;-73
2020/12/16 08:23:31;;;;;;;136.87;41.40;;;8.90;92.10;;;;;;8356963;28;20439;-74
2020/12/16 08:27:32;;;;;;;132.20;43.33;;;9.10;92.10;;;;;;8318240;28;20781;-74
2020/12/16 08:31:39;;;;;;;108.37;35.13;;;9.40;92.20;;;;;;8367469;28;20480;-74
2020/12/16 08:35:50;;;;;;;85.83;31.03;;;9.60;92.30;;;;;;8368783;28;20287;-74
2020/12/16 08:39:51;;;;;;;64.60;27.80;;;9.80;92.20;;;;;;8369165;28;20451;-74
2020/12/16 08:43:53;;;;;;;67.23;28.57;;;10.00;92.30;;;;;;8349959;28;20572;-74
2020/12/16 08:48:03;;;;;;;54.70;27.10;;;10.20;92.30;;;;;;8365841;28;20936;-74
2020/12/16 08:52:04;;;;;;;49.83;24.37;;;10.40;92.30;;;;;;8357388;28;20472;-73
2020/12/16 08:56:30;;;;;;;63.70;26.10;;;10.50;92.00;;;;;;8366808;28;20435;-74
2020/12/16 09:00:34;;;;;;;42.60;21.50;;;10.60;91.90;;;;;;8336911;28;20464;-73
2020/12/16 09:04:39;;;;;;;43.17;20.80;;;10.50;91.90;;;;;;8366848;28;20459;-74
2020/12/16 09:08:41;;;;;;;36.67;20.30;;;10.50;91.80;;;;;;8329556;28;20530;-74
2020/12/16 09:12:43;;;;;;;37.13;17.97;;;10.50;91.70;;;;;;8357259;28;20491;-73
2020/12/16 09:16:46;;;;;;;33.23;19.43;;;10.50;91.50;;;;;;8361618;28;20232;-73
2020/12/16 09:20:47;;;;;;;35.63;20.17;;;10.40;91.30;;;;;;8367163;28;20527;-73
2020/12/16 09:24:57;;;;;;;36.23;17.97;;;10.40;91.20;;;;;;8366628;28;20451;-73
2020/12/16 09:28:57;;;;;;;33.20;17.40;;;10.30;91.20;;;;;;8365063;28;21287;-74
2020/12/16 09:33:14;;;;;;;32.23;17.40;;;10.30;91.20;;;;;;8354802;28;20970;-74
2020/12/16 09:37:23;;;;;;;29.17;17.30;;;10.40;91.20;;;;;;8362508;28;20306;-74
2020/12/16 09:41:25;;;;;;;23.87;14.70;;;10.40;91.10;;;;;;8394243;28;20459;-74
2020/12/16 09:45:31;;;;;;;31.37;17.67;;;10.40;91.10;;;;;;8354246;28;20443;-74
2020/12/16 09:49:33;;;;;;;29.90;15.30;;;10.50;91.30;;;;;;8365726;28;20468;-73
2020/12/16 09:53:41;;;;;;;25.63;15.30;;;10.70;91.40;;;;;;8347974;28;20483;-74
2020/12/16 09:57:43;;;;;;;27.73;14.57;;;10.90;91.40;;;;;;8364934;28;20468;-75
2020/12/16 10:01:43;;;;;;;28.10;16.93;;;11.10;91.30;;;;;;8360477;28;20463;-74
2020/12/16 10:05:44;;;;;;;14.53;8.97;;;11.40;91.60;;;;;;8329975;28;20447;-73
2020/12/16 10:09:54;;;;;;;7.30;6.03;;;12.00;93.50;;;;;;8349453;28;20606;-73
2020/12/16 10:13:56;;;;;;;12.23;8.50;;;12.80;93.90;;;;;;8365570;28;20223;-73
2020/12/16 10:17:58;;;;;;;14.07;9.53;;;13.30;92.70;;;;;;8360385;28;20529;-73
2020/12/16 10:21:59;;;;;;;18.57;11.70;;;13.30;91.60;;;;;;8364529;28;20454;-72
2020/12/16 10:25:59;;;;;;;18.83;12.40;;;13.10;90.50;;;;;;8364113;28;20516;-73
2020/12/16 10:30:04;;;;;;;22.10;14.70;;;12.80;89.70;;;;;;8327134;28;20197;-76
2020/12/16 10:34:07;;;;;;;22.13;12.50;;;12.60;90.00;;;;;;8358181;28;20639;-74
2020/12/16 10:38:15;;;;;;;17.00;12.37;;;12.50;90.60;;;;;;8364201;28;20824;-74
2020/12/16 10:42:16;;;;;;;18.00;11.87;;;12.50;90.20;;;;;;8378213;28;20543;-73
2020/12/16 10:46:17;;;;;;;20.40;13.23;;;12.50;90.50;;;;;;8346377;28;20502;-73
2020/12/16 10:50:18;;;;;;;23.70;15.10;;;12.50;89.80;;;;;;8335690;28;20457;-74
2020/12/16 10:54:21;;;;;;;18.83;12.57;;;12.40;90.00;;;;;;8310242;28;20215;-73
2020/12/16 10:58:25;;;;;;;22.80;13.10;;;12.50;90.20;;;;;;8375201;28;20224;-73
2020/12/16 11:02:27;;;;;;;19.17;12.80;;;12.70;90.10;;;;;;8360959;28;20461;-74
2020/12/16 11:06:27;;;;;;;16.70;11.40;;;12.70;89.60;;;;;;8346058;28;20661;-74
2020/12/16 11:10:28;;;;;;;18.40;14.13;;;12.80;89.30;;;;;;8362503;28;20423;-74
2020/12/16 11:14:30;;;;;;;18.47;12.53;;;12.90;89.40;;;;;;8335918;28;20239;-73
2020/12/16 11:18:31;;;;;;;16.87;12.10;;;12.90;88.40;;;;;;8359564;28;20432;-73
2020/12/16 11:22:37;;;;;;;13.03;10.00;;;13.00;88.00;;;;;;8344511;28;20457;-74
2020/12/16 11:26:41;;;;;;;17.47;10.27;;;13.10;87.80;;;;;;8381732;28;20457;-74
2020/12/16 11:30:42;;;;;;;4.80;4.30;;;13.20;87.60;;;;;;8359931;28;20559;-73
2020/12/16 11:34:52;;;;;;;16.33;10.83;;;13.40;86.10;;;;;;8367651;28;20440;-73
2020/12/16 11:38:57;;;;;;;5.90;5.30;;;13.70;83.90;;;;;;8363715;28;21011;-73
2020/12/16 11:42:59;;;;;;;6.63;5.30;;;13.90;84.00;;;;;;8393249;28;20748;-73
2020/12/16 11:47:03;;;;;;;4.23;3.77;;;14.00;82.70;;;;;;8343009;28;20446;-73
2020/12/16 11:51:05;;;;;;;4.53;4.13;;;14.00;81.60;;;;;;8355507;28;20821;-74
2020/12/16 11:55:06;;;;;;;3.33;2.90;;;14.00;81.80;;;;;;8349750;28;20440;-74
2020/12/16 11:59:13;;;;;;;4.33;3.97;;;13.90;80.50;;;;;;8353177;28;20555;-74
2020/12/16 12:03:13;;;;;;;3.90;3.60;;;13.90;81.20;;;;;;8364697;28;20217;-73
2020/12/16 12:07:15;;;;;;;4.03;3.43;;;13.90;81.40;;;;;;8369691;28;20441;-73
2020/12/16 12:11:18;;;;;;;2.80;2.60;;;14.20;82.30;;;;;;8347858;28;20618;-73
2020/12/16 12:15:22;;;;;;;5.10;3.87;;;14.50;79.00;;;;;;8381006;28;20440;-74
2020/12/16 12:19:23;;;;;;;3.10;2.70;;;14.50;77.70;;;;;;8371488;28;20491;-73
2020/12/16 12:23:24;;;;;;;3.43;3.23;;;14.50;78.00;;;;;;8365655;28;20191;-74
2020/12/16 12:27:30;;;;;;;2.67;2.50;;;14.50;77.80;;;;;;8352290;28;20458;-73
2020/12/16 12:31:31;;;;;;;2.60;2.50;;;14.50;77.30;;;;;;8342035;28;20393;-74
2020/12/16 12:35:32;;;;;;;2.10;2.00;;;14.50;77.50;;;;;;8344018;28;20452;-74
2020/12/16 12:39:34;;;;;;;2.90;2.60;;;14.50;76.60;;;;;;8365756;28;20451;-73
2020/12/16 12:44:04;;;;;;;2.00;1.90;;;14.50;76.50;;;;;;8372223;28;20199;-74
2020/12/16 12:48:05;;;;;;;6.00;5.40;;;14.40;76.40;;;;;;8362077;28;20538;-74
2020/12/16 12:52:06;;;;;;;4.40;3.67;;;14.30;76.60;;;;;;8349129;28;20469;-74
2020/12/16 12:56:09;;;;;;;2.30;2.10;;;14.20;77.20;;;;;;8365571;28;20201;-72
2020/12/16 13:00:14;;;;;;;2.37;2.17;;;14.20;77.20;;;;;;8354767;28;21273;-73
2020/12/16 13:04:14;;;;;;;2.40;2.17;;;14.20;76.30;;;;;;8371671;28;20575;-73
2020/12/16 13:08:15;;;;;;;3.43;2.83;;;14.10;76.40;;;;;;8373575;28;20500;-72
2020/12/16 13:12:15;;;;;;;2.50;2.30;;;14.10;76.30;;;;;;8372120;28;21017;-73
2020/12/16 13:16:16;;;;;;;3.77;2.90;;;14.10;76.80;;;;;;8374229;28;20318;-73
2020/12/16 13:20:17;;;;;;;2.20;2.00;;;14.10;77.40;;;;;;8377286;28;20186;-73
2020/12/16 13:24:19;;;;;;;2.20;2.10;;;14.00;77.10;;;;;;8380045;28;20272;-73
2020/12/16 13:28:26;;;;;;;2.43;2.30;;;14.00;76.40;;;;;;8363993;28;20630;-73
2020/12/16 13:32:29;;;;;;;2.23;2.07;;;14.00;76.70;;;;;;8362742;28;20518;-74
2020/12/16 13:36:30;;;;;;;1.63;1.50;;;14.00;76.70;;;;;;8358830;28;20445;-73
2020/12/16 13:40:31;;;;;;;2.23;2.00;;;14.10;76.70;;;;;;8356955;28;20530;-73
2020/12/16 13:44:32;;;;;;;2.10;2.00;;;14.20;76.10;;;;;;8367204;28;20239;-73
2020/12/16 13:48:42;;;;;;;2.20;2.00;;;14.30;76.10;;;;;;8348984;28;20445;-76
2020/12/16 13:52:45;;;;;;;1.90;1.80;;;14.50;75.50;;;;;;8367266;28;20483;-75
2020/12/16 13:56:48;;;;;;;3.70;1.77;;;14.60;75.00;;;;;;8360740;28;20529;-75
2020/12/16 14:00:49;;;;;;;11.53;10.07;;;14.60;74.30;;;;;;8355922;28;20961;-74
2020/12/16 14:04:52;;;;;;;8.20;5.43;;;14.50;74.60;;;;;;8360823;28;20955;-74
2020/12/16 14:08:57;;;;;;;4.23;3.97;;;14.30;75.00;;;;;;8364940;28;20203;-72
2020/12/16 14:13:01;;;;;;;4.30;3.87;;;14.10;75.60;;;;;;8365272;28;20517;-73
2020/12/16 14:17:03;;;;;;;4.37;4.07;;;14.00;75.70;;;;;;8359006;28;21162;-74
2020/12/16 14:21:15;;;;;;;2.67;2.47;;;13.90;76.00;;;;;;8359284;28;20453;-74
2020/12/16 14:25:16;;;;;;;3.90;3.33;;;13.90;76.30;;;;;;8364600;28;20503;-73
2020/12/16 14:29:27;;;;;;;5.70;3.50;;;13.80;76.70;;;;;;8362223;28;20559;-75
2020/12/16 14:33:36;;;;;;;2.97;2.77;;;13.70;76.70;;;;;;8344119;28;21092;-73
2020/12/16 14:37:38;;;;;;;3.80;2.80;;;13.70;76.80;;;;;;8359917;28;20488;-76
2020/12/16 14:41:50;;;;;;;3.60;3.30;;;13.60;77.10;;;;;;8376225;28;20461;-74
2020/12/16 14:45:51;;;;;;;4.07;3.77;;;13.50;77.60;;;;;;8361309;28;20493;-74
2020/12/16 14:49:52;;;;;;;3.23;3.03;;;13.30;78.50;;;;;;8369141;28;20456;-72
2020/12/16 14:53:53;;;;;;;4.33;3.80;;;13.20;79.50;;;;;;8350698;28;20610;-73
2020/12/16 14:57:57;;;;;;;5.93;4.90;;;13.00;80.30;;;;;;8367754;28;20480;-72
2020/12/16 15:01:58;;;;;;;6.90;5.37;;;12.90;81.10;;;;;;8370813;28;20460;-73
2020/12/16 15:06:07;;;;;;;5.80;5.03;;;12.70;81.80;;;;;;8358060;28;20527;-72
2020/12/16 15:10:08;;;;;;;5.70;5.10;;;12.50;82.40;;;;;;8376416;28;20244;-73
2020/12/16 15:14:09;;;;;;;7.33;5.77;;;12.40;83.00;;;;;;8368372;28;20547;-74
2020/12/16 15:18:10;;;;;;;7.53;6.70;;;12.20;83.60;;;;;;8372052;28;20439;-73
2020/12/16 15:22:12;;;;;;;9.53;7.17;;;12.10;84.00;;;;;;8360252;28;20260;-73
2020/12/16 15:26:16;;;;;;;7.83;6.20;;;11.90;84.60;;;;;;8344447;28;20226;-73
2020/12/16 15:30:20;;;;;;;8.10;6.77;;;11.80;85.10;;;;;;8360803;28;20452;-73
2020/12/16 15:34:26;;;;;;;9.77;6.77;;;11.70;85.40;;;;;;8361853;28;20501;-74
2020/12/16 15:38:27;;;;;;;9.60;7.23;;;11.60;85.60;;;;;;8360275;28;20452;-73
2020/12/16 15:42:32;;;;;;;6.50;5.80;;;11.50;85.80;;;;;;8371117;28;20435;-73
2020/12/16 15:46:32;;;;;;;6.50;5.85;;;11.40;86.00;;;;;;8368388;28;20499;-73
2020/12/16 15:50:36;;;;;;;6.50;5.90;;;11.40;86.20;;;;;;8341513;28;20253;-73
2020/12/16 15:54:39;;;;;;;9.17;5.83;;;11.50;86.20;;;;;;8362497;28;20217;-73
2020/12/16 15:58:45;;;;;;;10.73;6.40;;;11.50;86.00;;;;;;8367745;28;21133;-73
2020/12/16 16:02:53;;;;;;;10.63;7.07;;;11.40;86.10;;;;;;8367706;28;20472;-73
2020/12/16 16:06:53;;;;;;;14.83;7.73;;;11.30;86.20;;;;;;8357617;28;20451;-74
2020/12/16 16:10:56;;;;;;;17.90;10.47;;;11.30;86.60;;;;;;8398278;28;20444;-74
2020/12/16 16:15:03;;;;;;;40.30;20.53;;;11.30;86.90;;;;;;8385847;28;20225;-72
2020/12/16 16:19:04;;;;;;;32.43;16.73;;;11.20;86.90;;;;;;8364504;28;20446;-74
2020/12/16 16:23:05;;;;;;;39.20;20.17;;;11.20;87.20;;;;;;8345402;28;20548;-73
2020/12/16 16:27:14;;;;;;;26.57;15.47;;;11.20;87.50;;;;;;8364860;28;20463;-73
2020/12/16 16:31:15;;;;;;;36.03;18.27;;;11.20;87.70;;;;;;8348373;28;20221;-72
2020/12/16 16:35:17;;;;;;;42.00;21.77;;;11.20;87.80;;;;;;8364191;28;20497;-71
2020/12/16 16:39:18;;;;;;;43.87;23.67;;;11.20;88.30;;;;;;8396869;28;20744;-71
2020/12/16 16:43:19;;;;;;;38.93;21.03;;;11.10;88.60;;;;;;8365383;28;20964;-72
2020/12/16 16:47:21;;;;;;;53.07;27.10;;;11.00;89.00;;;;;;8362856;28;20248;-73
2020/12/16 16:51:21;;;;;;;44.23;23.07;;;10.90;88.90;;;;;;8362470;28;20310;-75
2020/12/16 16:55:25;;;;;;;49.57;24.23;;;10.80;89.20;;;;;;8365238;28;20459;-72
2020/12/16 16:59:30;;;;;;;52.70;28.00;;;10.90;89.60;;;;;;8359893;28;20193;-73
2020/12/16 17:03:35;;;;;;;54.47;29.37;;;10.80;89.50;;;;;;8343524;28;20471;-72
2020/12/16 17:07:44;;;;;;;48.23;26.20;;;10.70;89.60;;;;;;8332742;28;20440;-73
2020/12/16 17:11:47;;;;;;;50.13;24.73;;;10.60;89.80;;;;;;8366063;28;20491;-72
2020/12/16 17:15:50;;;;;;;55.47;28.17;;;10.60;90.00;;;;;;8363799;28;20470;-72
2020/12/16 17:19:51;;;;;;;49.40;30.77;;;10.60;90.10;;;;;;8328948;28;20439;-71
2020/12/16 17:23:57;;;;;;;43.93;25.20;;;10.60;90.20;;;;;;8362678;28;20456;-73
2020/12/16 17:28:03;;;;;;;38.47;22.30;;;10.60;90.20;;;;;;8328320;28;20484;-74
2020/12/16 17:32:04;;;;;;;40.57;25.93;;;10.60;90.20;;;;;;8393703;28;21604;-73
2020/12/16 17:36:06;;;;;;;45.93;26.03;;;10.60;90.00;;;;;;8364383;28;20529;-72
2020/12/16 17:40:11;;;;;;;42.13;23.20;;;10.60;89.90;;;;;;8347624;28;20497;-73
2020/12/16 17:44:14;;;;;;;45.90;24.73;;;10.60;90.00;;;;;;8350030;28;20450;-73
2020/12/16 17:48:15;;;;;;;41.73;20.80;;;10.60;90.00;;;;;;8366075;28;20550;-71
2020/12/16 17:52:17;;;;;;;39.87;22.10;;;10.60;90.00;;;;;;8347309;28;20474;-72
2020/12/16 17:56:19;;;;;;;35.67;23.03;;;10.50;89.90;;;;;;8337715;28;20449;-72
2020/12/16 18:00:21;;;;;;;33.30;20.30;;;10.50;90.00;;;;;;8377434;28;20443;-72
2020/12/16 18:04:25;;;;;;;47.53;24.43;;;10.50;90.00;;;;;;8375778;28;20970;-73
2020/12/16 18:08:26;;;;;;;39.90;22.87;;;10.50;90.00;;;;;;8375554;28;20470;-73
2020/12/16 18:12:28;;;;;;;42.93;23.77;;;10.50;90.10;;;;;;8372391;28;20479;-73
2020/12/16 18:16:31;;;;;;;41.33;23.30;;;10.40;90.00;;;;;;8374193;28;20190;-73
2020/12/16 18:20:34;;;;;;;37.63;22.73;;;10.40;90.10;;;;;;8362273;28;20447;-73
2020/12/16 18:24:35;;;;;;;46.03;23.20;;;10.50;90.20;;;;;;8408511;28;20470;-73
2020/12/16 18:28:41;;;;;;;45.47;24.23;;;10.40;90.20;;;;;;8377411;28;20447;-74
2020/12/16 18:32:46;;;;;;;48.00;24.87;;;10.40;90.10;;;;;;8373582;28;20466;-73
2020/12/16 18:36:50;;;;;;;45.03;26.97;;;10.40;90.20;;;;;;8395271;28;21047;-72
2020/12/16 18:40:55;;;;;;;54.07;26.83;;;10.40;90.10;;;;;;8373929;28;21235;-72
2020/12/16 18:45:00;;;;;;;59.13;29.43;;;10.30;90.20;;;;;;8397112;28;20194;-73
2020/12/16 18:49:03;;;;;;;60.63;27.53;;;10.30;90.20;;;;;;8371835;28;20485;-72
2020/12/16 18:53:15;;;;;;;54.87;30.57;;;10.40;90.30;;;;;;8374142;28;20561;-72
2020/12/16 18:57:15;;;;;;;55.20;31.90;;;10.40;90.30;;;;;;8373699;28;21265;-73
2020/12/16 19:01:20;;;;;;;69.27;37.97;;;10.30;90.20;;;;;;8376889;28;21274;-74
2020/12/16 19:05:23;;;;;;;59.07;33.13;;;10.30;90.20;;;;;;8378396;28;20209;-74
2020/12/16 19:09:30;;;;;;;58.90;35.40;;;10.20;90.10;;;;;;8380039;28;20467;-73
2020/12/16 19:13:34;;;;;;;56.30;29.00;;;10.10;90.10;;;;;;8376993;28;20475;-74
2020/12/16 19:17:40;;;;;;;60.90;35.30;;;10.00;90.10;;;;;;8357646;28;20442;-73
2020/12/16 19:21:46;;;;;;;66.20;37.87;;;10.00;90.30;;;;;;8397405;28;20442;-72
2020/12/16 19:25:49;;;;;;;64.03;36.50;;;10.00;90.40;;;;;;8373979;28;20831;-72
2020/12/16 19:29:50;;;;;;;72.43;38.13;;;10.00;90.50;;;;;;8374446;28;20444;-72
2020/12/16 19:33:51;;;;;;;68.77;37.90;;;10.10;90.60;;;;;;8371581;28;20477;-73
2020/12/16 19:38:04;;;;;;;62.37;35.27;;;10.10;90.50;;;;;;8386041;28;20457;-73
2020/12/16 19:42:06;;;;;;;56.47;33.50;;;10.10;90.50;;;;;;8379954;28;20572;-72
2020/12/16 19:46:08;;;;;;;40.57;22.43;;;10.00;90.40;;;;;;8370573;28;20438;-73
2020/12/16 19:50:09;;;;;;;46.13;25.30;;;10.00;90.40;;;;;;8369215;28;20442;-73
2020/12/16 19:54:11;;;;;;;32.90;21.73;;;10.10;90.40;;;;;;8372214;28;20478;-73
2020/12/16 19:58:15;;;;;;;31.97;19.73;;;10.10;90.30;;;;;;8369026;28;20431;-73
2020/12/16 20:02:25;;;;;;;28.10;17.30;;;10.10;90.20;;;;;;8386007;28;20494;-73
2020/12/16 20:06:28;;;;;;;17.73;12.93;;;10.10;90.20;;;;;;8361948;28;20999;-73
2020/12/16 20:10:29;;;;;;;17.70;10.57;;;10.30;90.50;;;;;;8362427;28;20458;-72
2020/12/16 20:14:41;;;;;;;16.37;11.30;;;10.70;90.70;;;;;;8357667;28;21048;-72
2020/12/16 20:18:46;;;;;;;18.73;13.70;;;11.00;90.20;;;;;;8377813;28;20432;-73
2020/12/16 20:22:54;;;;;;;16.00;11.40;;;11.10;89.30;;;;;;8334337;28;20485;-73
2020/12/16 20:26:56;;;;;;;17.77;12.97;;;11.40;88.60;;;;;;8366861;28;20865;-72
2020/12/16 20:31:02;;;;;;;18.00;11.00;;;11.60;87.70;;;;;;8362056;28;20445;-72
2020/12/16 20:35:07;;;;;;;16.10;11.57;;;11.70;87.00;;;;;;8365755;28;20534;-72
2020/12/16 20:39:11;;;;;;;13.00;9.03;;;11.80;86.50;;;;;;8369328;28;20506;-72
2020/12/16 20:43:12;;;;;;;13.00;11.00;;;11.70;86.40;;;;;;8367359;28;20451;-73
2020/12/16 20:47:17;;;;;;;11.60;8.00;;;11.70;86.40;;;;;;8353422;28;20563;-73
2020/12/16 20:51:17;;;;;;;7.93;6.33;;;11.80;86.90;;;;;;8368520;28;20475;-74